x

9087023 - Ludington, Mi (ldtm4) Weather Station

4:54am - Wed 26th Nov 2014 All times are CST. -6 hours from GMT.

  • Wind
    3mph, 6mph gusts
  • Air Temp 27°f
  • Sea Pressure 1020.4mb
  • 9087023 - Ludington, Mi
  • 9087023 - Ludington, Mi

More Historic Weather Station data

Upgrade to MSW Pro to gain access to the past 30 days of data for over 8000 Wavebouys and Weather Stations around the globe.

Join Pro

Comparision Forecast

View Surf forecast
   
Wed 11/26 4:54am 3 6 mph 1020.4mb 27f
4:48am 5 6 mph 1020.4mb 27f
4:42am 3 6 mph 1020.5mb 27f
4:36am 3 5 mph 1020.6mb 27f
4:30am 3 5 mph 1020.6mb 27f
4:24am 3 5 mph 1020.7mb 27f
4:18am 2 5 mph 1020.8mb 27f
4:12am 3 6 mph 1020.9mb 27f
4:06am 2 5 mph 1020.9mb 27f
3:54am 3 5 mph 1021mb 27f
3:48am 3 6 mph 1021mb 27f
3:42am 3 6 mph 1021.1mb 27f
3:36am 3 5 mph 1021.1mb 27f
3:30am 5 6 mph 1021.2mb 27f
3:24am 5 6 mph 1021.3mb 27f
3:18am 3 6 mph 1021.3mb 27f
3:12am 5
mph
1021.3mb 27f
3:06am 5 6 mph 1021.4mb 27f
3:00am 3 5 mph 1021.5mb 27f
2:54am 5 6 mph 1021.5mb 27f
2:48am 5 7 mph 1021.4mb 27f
2:42am 5 6 mph 1021.4mb 27f
2:36am 3 5 mph 1021.4mb 27f
2:30am 5 6 mph 1021.5mb 27f
2:24am 3 5 mph 1021.6mb 27f
2:18am 1 5 mph 1021.6mb 27f
2:06am 2 3 mph 1021.6mb 27f
1:54am 2 3 mph 1021.6mb 27f
1:48am 2 3 mph 1021.5mb 27f
1:42am 2 5 mph 1021.5mb 27f
1:36am 2 3 mph 1021.4mb 27f
1:30am 1 3 mph 1021.4mb 28f
1:24am 1 3 mph 1021.3mb 27f
1:18am 5 6 mph 1021.3mb 27f
1:12am 2 5 mph 1021.3mb 27f
1:06am 2 5 mph 1021.3mb 28f
12:54am 2 3 mph 1021.2mb 28f
12:48am 2 3 mph 1021.3mb 28f
12:42am 2 3 mph 1021.2mb 28f
12:36am 2 3 mph 1021.3mb 28f
12:30am 3 5 mph 1021.3mb 28f
12:24am 3 8 mph 1021.3mb 29f
12:18am 3 8 mph 1021.3mb 29f
12:12am 6 10 mph 1021.3mb 29f
12:06am 8 14 mph 1021.2mb 29f
12:00am 5 8 mph 1021.2mb 29f
Tue 11/25 11:54pm 3 8 mph 1021.3mb 29f
11:48pm 3 6 mph 1021.3mb 29f
11:42pm 3 9 mph 1021.4mb 29f
11:36pm 7 10 mph 1021.3mb 29f
11:30pm 3 7 mph 1021.4mb 29f
11:24pm 3 7 mph 1021.3mb 29f
11:18pm 6 8 mph 1021.2mb 28f
11:12pm 6 9 mph 1021.2mb 28f
11:06pm 6 9 mph 1021.2mb 28f
10:54pm 9 13 mph 1021.3mb 28f
10:48pm 5 8 mph 1021.2mb 28f
10:42pm 5 10 mph 1021.2mb 28f
10:36pm 8 10 mph 1021.1mb 28f
10:30pm 7 11 mph 1021mb 28f
10:24pm 6 9 mph 1020.9mb 29f
10:18pm 5 10 mph 1020.9mb 28f
10:12pm 7 10 mph 1020.8mb 28f
10:06pm 5 8 mph 1020.8mb 28f
9:54pm 5 9 mph 1020.7mb 28f
9:48pm 8 10 mph 1020.6mb 28f
9:42pm 8 13 mph 1020.5mb 28f
9:36pm 6 9 mph 1020.6mb 28f
9:30pm 6 8 mph 1020.6mb 28f
9:24pm 3 6 mph 1020.5mb 28f
9:18pm 3 6 mph 1020.5mb 28f
9:12pm 6 8 mph 1020.5mb 28f
9:06pm 8 10 mph 1020.5mb 28f
9:00pm 8 11 mph 1020.5mb 28f
8:54pm 6 8 mph 1020.4mb 28f
8:48pm 3 5 mph 1020.3mb 27f
8:42pm 3 7 mph 1020.3mb 27f
8:36pm 7 11 mph 1020.3mb 27f
8:30pm 9 13 mph 1020.2mb 28f
8:24pm 6 8 mph 1020.2mb 28f
8:18pm 7 11 mph 1020.3mb 28f
8:12pm 10 13 mph 1020.3mb 28f
8:06pm 6 11 mph 1020.2mb 28f
8:00pm 5 9 mph 1020.2mb 28f
7:54pm 6 9 mph 1020.1mb 28f
7:48pm 5 11 mph 1020.1mb 28f
7:42pm 7 8 mph 1020.1mb 28f
7:36pm 6 11 mph 1020mb 28f
7:30pm 3 7 mph 1020mb 28f
7:24pm 5 9 mph 1020mb 28f
7:18pm 6 13 mph 1019.9mb 28f
7:12pm 9 14 mph 1019.8mb 28f
7:06pm 7 13 mph 1019.8mb 28f
6:54pm 6 14 mph 1019.7mb 28f
6:48pm 5 9 mph 1019.7mb 27f
6:42pm 6 11 mph 1019.7mb 28f
6:36pm 8 10 mph 1019.7mb 27f
6:30pm 6 10 mph 1019.6mb 27f
6:24pm 7 11 mph 1019.5mb 27f
6:18pm 6 10 mph 1019.6mb 27f
6:12pm 7 15 mph 1019.6mb 27f
6:06pm 9 14 mph 1019.6mb 27f
5:54pm 6 10 mph 1019.5mb 27f
5:48pm 6 14 mph 1019.5mb 27f
5:42pm 8 16 mph 1019.5mb 28f
5:36pm 9 11 mph 1019.3mb 28f
5:30pm 6 10 mph 1019.3mb 28f
5:24pm 6 16 mph 1019.3mb 28f
5:18pm 14 16 mph 1019.2mb 27f
5:12pm 10 16 mph 1019.2mb 27f
5:06pm 8 14 mph 1019.2mb 28f
4:54pm 11 18 mph 1019.2mb 28f
4:48pm 13 17 mph 1019.1mb 28f
4:42pm 9 15 mph 1019.1mb 28f
4:36pm 9 14 mph 1019mb 28f
4:30pm 11 15 mph 1019mb 28f
4:24pm 9 15 mph 1018.9mb 28f
4:18pm 10 15 mph 1018.8mb 28f
4:06pm 10 14 mph 1018.6mb 28f
4:00pm 13 16 mph 1018.5mb 28f
3:54pm 11 14 mph 1018.6mb 28f
3:48pm 8 11 mph 1018.6mb 28f
3:42pm 8 15 mph 1018.5mb 28f
3:36pm 9 14 mph 1018.4mb 28f
3:30pm 6 15 mph 1018.3mb 28f
3:24pm 11 16 mph 1018.2mb 28f
3:18pm 6 11 mph 1018.1mb 28f
3:12pm 9 14 mph 1018mb 28f
3:06pm 8 13 mph 1017.9mb 28f
3:00pm 7 13 mph 1017.7mb 28f
2:54pm 9 13 mph 1017.6mb 28f
2:48pm 8 13 mph 1017.5mb 28f
2:42pm 7 13 mph 1017.2mb 28f
2:36pm 8 13 mph 1017mb 29f
2:30pm 7 13 mph 1016.9mb 28f
2:24pm 10 14 mph 1016.9mb 29f
2:18pm 7 15 mph 1016.8mb 29f
2:12pm 8 13 mph 1016.7mb 29f
2:06pm 8 14 mph 1016.7mb 29f
2:00pm 10 15 mph 1016.5mb 29f
1:54pm 8 14 mph 1016.4mb 29f
1:48pm 9 14 mph 1016.2mb 29f
1:42pm 11 14 mph 1016.2mb 29f
1:36pm 8 13 mph 1016mb 29f
1:30pm 8 15 mph 1015.9mb 29f
1:24pm 7 13 mph 1015.8mb 29f
1:18pm 7 11 mph 1015.9mb 29f
1:06pm 9 14 mph 1015.9mb 29f
1:00pm 8 14 mph 1015.8mb 29f
12:54pm 9 13 mph 1015.8mb 29f
12:48pm 8 16 mph 1015.8mb 29f
12:42pm 8 14 mph 1015.7mb 29f
12:36pm 10 15 mph 1015.7mb 29f
12:30pm 9 17 mph 1015.5mb 29f
12:24pm 8 14 mph 1015.4mb 29f
12:18pm 10 17 mph 1015.5mb 29f
12:12pm 8 15 mph 1015.3mb 29f
12:06pm 9 14 mph 1015.4mb 29f
12:00pm 10 16 mph 1015.3mb 29f
11:54am 8 15 mph 1015.2mb 30f
11:48am 9 14 mph 1015.1mb 29f
11:42am 9 16 mph 1015.1mb 30f
11:36am 11 17 mph 1015mb 30f
11:30am 8 16 mph 1014.9mb 30f
11:24am 10 17 mph 1014.9mb 30f
11:18am 9 16 mph 1014.8mb 30f
11:12am 7 17 mph 1014.8mb 30f
11:06am 11 17 mph 1014.8mb 29f
11:00am 10 15 mph 1014.7mb 30f
10:54am 8 14 mph 1014.6mb 30f
10:48am 8 14 mph 1014.6mb 29f
10:42am 10 14 mph 1014.5mb 29f
10:36am 9 16 mph 1014.4mb 29f
10:30am 11 16 mph 1014.4mb 29f
10:24am 11 18 mph 1014.3mb 29f
10:18am 9 14 mph 1014.2mb 29f
10:12am 11 18 mph 1014.1mb 29f
10:06am 11 17 mph 1014mb 29f
10:00am 11 17 mph 1014mb 29f
9:54am 11 16 mph 1013.8mb 29f
9:48am 11 16 mph 1013.6mb 29f
9:42am 11 16 mph 1013.5mb 29f
9:36am 13 21 mph 1013.3mb 29f
9:30am 11 21 mph 1013.2mb 29f
9:24am 11 21 mph 1013.1mb 29f
9:18am 13 17 mph 1013mb 29f
9:12am 11 18 mph 1012.9mb 29f
9:06am 10 18 mph 1012.8mb 29f
9:00am 14 21 mph 1012.7mb 29f
8:54am 11 21 mph 1012.6mb 29f
8:48am 13 21 mph 1012.5mb 29f
8:42am 11 20 mph 1012.4mb 29f
8:36am 11 21 mph 1012.3mb 29f
8:30am 10 20 mph 1012.2mb 29f
8:24am 14 20 mph 1012.1mb 29f
8:18am 14 20 mph - -
8:12am 14 20 mph - -
8:06am 13 21 mph - -
7:54am 9 16 mph 1011.6mb 29f
7:48am 13 17 mph 1011.5mb 29f
7:42am 13 17 mph 1011.4mb 29f
7:36am 13 20 mph 1011.3mb 29f
7:30am 13 20 mph 1011.2mb 29f
7:24am 11 18 mph 1011mb 29f
7:18am 10 21 mph 1011mb 29f
7:12am 14 21 mph 1010.9mb 29f
7:06am 14 21 mph 1010.7mb 29f
7:00am 11 16 mph 1010.5mb 29f
6:54am 14 22 mph 1010.4mb 29f
6:48am 14 22 mph 1010.3mb 29f
6:42am 14 20 mph 1010.2mb 29f
6:36am 14 21 mph 1010.1mb 29f
6:30am 13 18 mph 1010mb 29f
6:24am 14 18 mph 1009.9mb 29f
6:18am 11 20 mph 1009.7mb 29f
6:12am 13 20 mph 1009.6mb 29f
6:06am 13 20 mph 1009.5mb 29f
6:00am 9 18 mph 1009.3mb 29f
5:54am 11 18 mph 1009.3mb 29f
5:48am 13 21 mph 1009.1mb 29f
5:42am 13 20 mph 1009mb 29f
5:36am 15 20 mph 1008.9mb 29f
5:30am 11 17 mph 1008.7mb 30f
5:24am 13 20 mph 1008.6mb 29f
5:18am 13 22 mph 1008.5mb 29f
5:12am 14 20 mph 1008.4mb 29f
5:06am 15 20 mph 1008.1mb 29f
5:00am 13 20 mph 1008.1mb 29f
4:54am 14 22 mph 1008mb 29f
4:48am 14 21 mph 1007.9mb 30f
4:42am 15 22 mph 1007.7mb 29f
4:36am 15 23 mph 1007.6mb 29f
4:30am 11 22 mph 1007.6mb 30f
4:24am 11 20 mph 1007.4mb 30f
4:18am 14 21 mph 1007.4mb 30f
4:12am 15 22 mph 1007.3mb 30f
4:06am 10 18 mph 1007.3mb 30f
4:00am 14 24 mph 1007.1mb 30f
3:54am 15 23 mph 1007mb 30f
3:48am 15 21 mph 1007mb 30f
3:42am 13 20 mph 1007mb 29f
3:36am 16 22 mph 1006.8mb 30f
3:30am 14 22 mph 1006.7mb 30f
3:24am 11 17 mph 1006.6mb 30f
3:18am 10 20 mph 1006.6mb 30f
3:12am 16 21 mph 1006.5mb 29f
3:06am 13 20 mph 1006.4mb 29f
3:00am 14 22 mph 1006.4mb 29f
2:54am 11 20 mph 1006.3mb 29f
2:48am 10 17 mph 1006.3mb 29f
2:42am 11 18 mph 1006.2mb 29f
2:36am 11 22 mph 1006.2mb 29f
2:30am 10 17 mph 1006.1mb 29f
2:24am 13 20 mph 1006mb 29f
2:18am 15 23 mph 1005.9mb 29f
2:12am 14 22 mph 1005.8mb 29f
2:06am 11 18 mph 1005.7mb 29f
2:00am 15 22 mph 1005.6mb 29f
1:54am 13 17 mph 1005.5mb 29f
1:48am 10 17 mph 1005.4mb 29f
1:42am 11 18 mph 1005.3mb 29f
1:36am 13 20 mph 1005.2mb 29f
1:30am 10 24 mph 1005mb 29f
1:24am 13 22 mph 1004.8mb 29f
1:18am 13 20 mph 1004.7mb 29f
1:12am 11 20 mph 1004.6mb 29f
1:06am 11 18 mph 1004.4mb 29f
1:00am 9 17 mph 1004.4mb 29f
12:54am 11 18 mph 1004.2mb 29f
12:48am 11 22 mph 1004.2mb 29f
12:42am 13 18 mph 1004mb 29f
12:36am 15 21 mph 1003.9mb 29f
12:30am 13 20 mph 1003.8mb 29f
12:24am 11 20 mph 1003.7mb 29f
12:18am 15 18 mph 1003.7mb 29f
12:12am 15 18 mph 1003.5mb 30f
12:06am 10 20 mph 1003.2mb 30f
12:00am 14 21 mph 1003.2mb 29f
Mon 11/24 11:54pm 10 20 mph 1003mb 30f
11:48pm 13 18 mph 1002.9mb 30f
11:42pm 13 18 mph 1002.8mb 30f
11:36pm 13 21 mph 1002.8mb 30f
11:30pm 10 18 mph 1002.7mb 30f
11:24pm 14 18 mph 1002.6mb 30f
11:18pm 14 20 mph 1002.5mb 30f
11:12pm 13 20 mph 1002.3mb 30f
11:06pm 13 20 mph 1002.2mb 30f
11:00pm 10 21 mph 1002.1mb 31f
10:54pm 13 21 mph 1001.9mb 31f
10:48pm 11 18 mph 1001.8mb 31f
10:42pm 10 16 mph 1001.7mb 31f
10:36pm 14 21 mph 1001.5mb 31f
10:30pm 10 18 mph 1001.3mb 31f
10:24pm 14 22 mph 1001.1mb 31f
10:18pm 11 21 mph 1001mb 31f
10:12pm 15 23 mph 1000.8mb 31f
10:06pm 13 20 mph 1000.7mb 31f
10:00pm 10 17 mph 1000.5mb 32f
9:54pm 13 18 mph 1000.3mb 31f
9:48pm 11 16 mph 1000.3mb 32f
9:42pm 10 17 mph 1000.1mb 32f
9:36pm 13 21 mph 999.9mb 32f
9:30pm 13 21 mph 999.8mb 32f
9:24pm 14 20 mph 999.6mb 32f
9:18pm 10 17 mph 999.4mb 32f
9:12pm 10 20 mph 999.2mb 32f
9:06pm 13 16 mph 999.1mb 33f
9:00pm 14 20 mph 998.9mb 32f
8:54pm 10 15 mph 998.7mb 33f
8:48pm 9 14 mph 998.6mb 33f
8:42pm 9 18 mph 998.4mb 33f
8:36pm 13 21 mph 998.3mb 33f
8:30pm 13 34 mph 998mb 33f
8:24pm 26 34 mph 997.7mb 33f
8:18pm 28 37 mph 997.6mb 33f
8:12pm 21 36 mph 997.6mb 33f
8:06pm 25 36 mph 997.4mb 33f
8:00pm 24 33 mph 997.2mb 33f
7:54pm 24 33 mph 997.1mb 33f
7:48pm 23 30 mph 997mb 33f
7:42pm 24 36 mph 996.9mb 33f
7:36pm 26 34 mph 996.6mb 33f
7:30pm 23 32 mph 996.6mb 34f
7:24pm 23 30 mph 996.5mb 34f
7:18pm 25 33 mph 996.4mb 33f
7:12pm 25 31 mph 996.3mb 34f
7:06pm 25 34 mph 996.1mb 34f
7:00pm 24 32 mph 996mb 34f
6:54pm 24 33 mph 995.8mb 34f
6:48pm 26 33 mph 995.6mb 34f
6:42pm 23 33 mph 995.4mb 34f
6:36pm 25 33 mph 995.2mb 34f
6:30pm 25 33 mph 995.1mb 34f
6:24pm 24 36 mph 994.9mb 34f
6:18pm 24 38 mph 994.7mb 34f
6:12pm 21 31 mph 994.6mb 34f
6:06pm 15 30 mph 994.5mb 34f
6:00pm 18 31 mph 994.4mb 34f
5:54pm 17 31 mph 994.3mb 35f
5:48pm 20 29 mph 994.1mb 35f
5:42pm 18 33 mph 994mb 34f
5:36pm 15 29 mph 993.8mb 34f
5:30pm 16 28 mph 993.6mb 34f
5:24pm 18 31 mph 993.5mb 35f
5:18pm 14 25 mph 993.3mb 35f
5:12pm 17 28 mph 993.1mb 35f
5:06pm 11 24 mph 993mb 35f
5:00pm 14 25 mph 992.8mb 35f
4:54pm 11 22 mph 992.6mb 35f
4:48pm 15 22 mph 992.4mb 35f
4:42pm 13 22 mph 992.3mb 35f
4:36pm 13 26 mph 992mb 35f
4:30pm 13 23 mph 991.8mb 35f
4:24pm 11 23 mph 991.6mb 36f
4:18pm 15 22 mph 991.4mb 36f
4:12pm 14 30 mph 991.1mb 36f
4:06pm 20 30 mph 990.9mb 37f
4:00pm 16 24 mph 990.7mb 37f
3:54pm 14 25 mph 990.5mb 37f
3:48pm 16 24 mph 990.2mb 38f
3:42pm 11 18 mph 990mb 38f
3:36pm 10 22 mph 989.8mb 38f
3:30pm 14 25 mph 989.5mb 39f
3:24pm 17 29 mph 989.2mb 40f
3:18pm 14 23 mph 988.9mb 40f
3:06pm 16 25 mph 988.5mb 41f
3:00pm 15 22 mph 988.2mb 41f
2:54pm 17 24 mph 988mb 41f
2:48pm 22 29 mph 987.7mb 41f
2:42pm 18 26 mph 987.5mb 41f
2:36pm 15 22 mph 987.4mb 42f
2:30pm 15 22 mph 987.3mb 42f
2:24pm 15 22 mph 987.1mb 42f
2:18pm 13 22 mph 986.9mb 42f
2:12pm 16 21 mph 986.7mb 42f
2:06pm 14 21 mph 986.5mb 42f
2:00pm 14 21 mph 986.4mb 42f
1:54pm 10 16 mph 986.2mb 43f
1:48pm 13 18 mph 986.1mb 43f
1:42pm 10 16 mph 986mb 43f
1:36pm 9 16 mph 985.9mb 43f
1:30pm 11 16 mph 985.8mb 43f
1:24pm 11 16 mph 985.6mb 43f
1:18pm 11 16 mph 985.5mb 43f
1:06pm 9 13 mph 985.3mb 42f
1:00pm 7 10 mph 985.1mb 43f
12:54pm 6 9 mph 984.9mb 43f
12:48pm 5 8 mph 984.7mb 43f
12:42pm 5 10 mph 984.6mb 43f
12:36pm 5 9 mph 984.5mb 43f
12:30pm 6 9 mph 984.3mb 43f
12:24pm 7 10 mph 984.2mb 43f
12:18pm 5 7 mph 984.1mb 43f
12:12pm 5 8 mph 984mb 43f
12:06pm 5 7 mph 984mb 43f
12:00pm 6 8 mph 983.9mb 43f
11:54am 5 8 mph 983.9mb 43f
11:48am 5 9 mph 983.8mb 43f
11:42am 5 8 mph 983.8mb 43f
11:36am 5 7 mph 983.8mb 43f
11:30am 5 7 mph 983.7mb 43f
11:24am 5 7 mph 983.7mb 43f
11:18am 5 8 mph 983.6mb 43f
11:12am 7 9 mph 983.6mb 43f
11:06am 6 8 mph 983.6mb 43f
11:00am 6 8 mph 983.5mb 44f
10:54am 5 9 mph 983.5mb 44f
10:48am 7 8 mph 983.6mb 44f
10:42am 5 7 mph 983.6mb 44f
10:36am 6 8 mph 983.7mb 44f
10:30am 6 8 mph 983.7mb 43f
10:24am 5 7 mph 983.6mb 44f
10:18am 6 8 mph 983.6mb 43f
10:12am 6 9 mph 983.6mb 43f
10:06am 6 9 mph 983.7mb 43f
10:00am 8 9 mph 983.8mb 43f
9:54am 6 8 mph 983.8mb 43f
9:48am 6 8 mph 983.7mb 43f
9:42am 6 8 mph 983.6mb 43f
9:36am 6 8 mph 983.5mb 43f
9:30am 7 9 mph 983.5mb 43f
9:24am 6 8 mph 983.5mb 43f
9:18am 6 8 mph 983.5mb 43f
9:06am 2 6 mph 983.4mb 43f
9:00am 3 6 mph 983.4mb 43f
8:54am 2 5 mph 983.3mb 43f
8:48am 3 6 mph 983.3mb 43f
8:42am 5 7 mph 983.3mb 43f
8:36am 2 6 mph 983.3mb 43f
8:30am 5 7 mph 983.3mb 43f
8:24am 3 6 mph 983.4mb 43f
8:18am 3 6 mph 983.5mb 43f
8:12am 3 8 mph 983.4mb 43f
8:06am 6 8 mph 983.3mb 43f
8:00am 6 7 mph 983.2mb 43f
7:54am 6 8 mph 983.1mb 44f
7:48am 6 10 mph 983.1mb 44f
7:42am 7 9 mph 983.1mb 44f
7:36am 7 8 mph 983mb 44f
7:30am 7 8 mph 983mb 44f
7:24am 5 7 mph 982.9mb 44f
7:18am 2 5 mph 982.9mb 44f
7:12am 1 6 mph 982.8mb 43f
7:06am 5 6 mph 982.8mb 44f
7:00am 5 6 mph 982.8mb 44f
6:54am 5 6 mph 982.8mb 44f
6:48am 1 3 mph 982.7mb 44f
6:42am 3 6 mph 982.6mb 44f
6:36am 2 3 mph 982.6mb 44f
6:30am 1 5 mph 982.5mb 44f
6:24am 6 7 mph 982.4mb 44f
6:18am 6 7 mph 982.3mb 44f
6:12am 6 7 mph 982.2mb 44f
6:06am 2 9 mph 982.3mb 45f
6:00am 6 9 mph 982.3mb 45f
5:54am 8 9 mph 982.3mb 46f
5:48am 6 8 mph 982.2mb 45f
5:42am 6 8 mph 982.1mb 46f
5:36am 7 8 mph 982.2mb 46f
5:30am 7 10 mph 982.1mb 46f
5:24am 8 10 mph 982.1mb 46f
5:18am 8 10 mph 982.1mb 46f
5:12am 7 10 mph 982.1mb 46f
5:06am 7 10 mph 982.1mb 47f
5:00am 7 9 mph 982mb 47f
4:54am 5 8 mph 982mb 47f
4:48am 6 8 mph 981.9mb 47f
4:42am 3 7 mph 981.9mb 46f
4:36am 3 6 mph 981.9mb 46f
4:30am 2 5 mph 981.8mb 46f
4:24am 2 5 mph 981.9mb 46f
4:18am  -  3 mph 981.8mb 45f
4:12am 2 3 mph 981.8mb 45f
4:06am 2 3 mph 981.8mb 46f
4:00am 1 3 mph 981.9mb 46f
3:54am 2 3 mph 981.9mb 46f
3:48am 2 3 mph 981.9mb 46f
3:42am 3
mph
981.9mb 46f
3:36am 2
mph
981.9mb 46f
3:30am  -  1 mph 982mb 46f
3:24am  -  1 mph 982mb 46f
3:18am  -  1 mph 982mb 46f
3:12am  -  1 mph 982mb 45f
3:06am  -  1 mph 982.1mb 45f
3:00am  -  1 mph 982.2mb 46f
2:54am  -  1 mph 982.2mb 47f
2:48am  -  mph 982.3mb 47f
2:42am  -  1 mph 982.4mb 47f
2:36am  -  1 mph 982.5mb 47f
2:30am  -  mph 982.6mb 46f
2:24am  -  1 mph 982.6mb 46f
2:18am  -  1 mph 982.7mb 46f
2:12am  -  2 mph 982.7mb 46f
2:06am 2 3 mph 982.8mb 46f
2:00am 2
mph
982.9mb 47f
1:54am  -  1 mph 983mb 47f
1:48am 1 2 mph 983mb 47f
1:42am 1
mph
983.1mb 47f
1:36am 2
mph
983.2mb 47f
1:30am 1 2 mph 983.3mb 47f
1:24am 2 3 mph 983.4mb 47f
1:18am 3 5 mph 983.5mb 47f
1:12am 3
mph
983.5mb 48f
1:06am  -  2 mph 983.7mb 48f
1:00am 1 2 mph 983.7mb 48f
12:54am 1 2 mph 983.9mb 48f
12:48am  -  1 mph 984mb 48f
12:42am  -  1 mph 984.1mb 48f
12:36am  -  2 mph 984.2mb 48f
12:30am  -  2 mph 984.4mb 48f
12:24am 2 6 mph 984.5mb 48f
12:18am 3 6 mph 984.6mb 48f
12:12am 3 6 mph 984.8mb 48f
12:06am 5 6 mph 985mb 48f
12:00am 5 6 mph 985.1mb 48f
Sun 11/23 11:54pm 5 8 mph 985.3mb 48f
11:48pm 6 8 mph 985.4mb 48f
11:42pm 6 8 mph 985.6mb 48f
11:36pm 6 8 mph 985.7mb 48f
11:30pm 6 8 mph 985.9mb 48f
11:24pm 6 8 mph 986.1mb 48f
11:18pm 6 8 mph 986.3mb 48f
11:12pm 6 8 mph 986.6mb 48f
11:06pm 7 10 mph 986.8mb 48f
11:00pm 7 9 mph 987mb 48f
10:54pm 7 10 mph 987.3mb 48f
10:48pm 7 9 mph 987.4mb 48f
10:42pm 6 8 mph 987.7mb 48f
10:36pm 6 9 mph 987.9mb 48f
10:30pm 6 9 mph 988.2mb 48f
10:24pm 6 8 mph 988.4mb 48f
10:18pm 6 9 mph 988.6mb 48f
10:12pm 6 9 mph 988.8mb 48f
10:06pm 7 9 mph 989mb 48f
10:00pm 7 11 mph 989.2mb 48f
9:54pm 8 11 mph 989.4mb 48f
9:48pm 8 11 mph 989.6mb 48f
9:42pm 9 13 mph 989.9mb 48f
9:36pm 9 11 mph 990.1mb 48f
9:30pm 8 13 mph 990.4mb 48f
9:24pm 8 11 mph 990.7mb 48f
9:12pm 9 11 mph 991.1mb 48f
9:06pm 9 13 mph 991.4mb 48f
9:00pm 9 13 mph 991.7mb 48f
8:54pm 9 14 mph 992mb 48f
8:48pm 8 11 mph 992.2mb 48f
8:42pm 11 15 mph 992.5mb 48f
8:36pm 9 13 mph 992.7mb 48f
8:30pm 9 15 mph 993mb 48f
8:24pm 10 13 mph 993.2mb 48f
8:18pm 9 13 mph 993.5mb 48f
8:12pm 8 11 mph 993.7mb 48f
8:06pm 8 11 mph 994mb 48f
8:00pm 8 13 mph 994.1mb 48f
7:54pm 7 10 mph 994.3mb 48f
7:48pm 8 11 mph 994.5mb 48f
7:42pm 8 11 mph 994.7mb 48f
7:36pm 7 9 mph 994.9mb 48f
7:30pm 6 9 mph 995.1mb 48f
7:24pm 7 9 mph 995.2mb 48f
7:18pm 6 10 mph 995.3mb 48f
7:12pm 7 9 mph 995.5mb 49f
7:06pm 6 11 mph 995.7mb 49f
7:00pm 6 14 mph 995.9mb 49f
6:54pm 8 13 mph 996.1mb 49f
6:48pm 9 14 mph 996.3mb 49f
6:42pm 10 13 mph 996.4mb 49f
6:36pm 8 13 mph 996.6mb 49f
6:30pm 8 11 mph 996.8mb 49f
6:24pm 7 11 mph 997.1mb 49f
6:18pm 8 14 mph 997.3mb 49f
6:12pm 8 11 mph 997.4mb 49f
6:06pm 7 16 mph 997.6mb 49f
6:00pm 6 10 mph 997.9mb 49f
5:54pm 8 14 mph 997.9mb 49f
5:48pm 8 15 mph 997.9mb 49f
5:42pm 8 13 mph 998mb 49f
5:36pm 7 13 mph 998.2mb 49f
5:30pm 7 14 mph 998.2mb 49f
5:24pm 8 11 mph 998.3mb 49f
5:18pm 10 17 mph 998.4mb 49f
5:12pm 6 11 mph 998.6mb 49f
5:06pm 8 13 mph 998.7mb 49f
5:00pm 7 10 mph 998.8mb 48f
4:54pm 8 11 mph 998.9mb 49f
4:48pm 8 14 mph 998.9mb 49f
4:42pm 8 13 mph 999mb 49f
4:36pm 7 13 mph 999mb 49f
4:30pm 6 8 mph 999mb 49f
4:24pm 5 8 mph 999.1mb 49f
4:18pm 5 7 mph 999.2mb 49f
4:12pm 5 7 mph 999.2mb 49f
4:06pm 3 8 mph 999.3mb 49f
4:00pm 5 9 mph 999.4mb 49f
3:54pm 7 14 mph 999.5mb 49f
3:48pm 5 11 mph 999.6mb 49f
3:42pm 5 11 mph 999.8mb 49f
3:36pm 6 8 mph 999.8mb 49f
3:30pm 7 10 mph 999.8mb 49f
3:24pm 7 11 mph 999.9mb 49f
3:18pm 7 10 mph 1000.1mb 50f
3:12pm 6 9 mph 1000.2mb 50f
3:06pm 6 13 mph 1000mb 50f
3:00pm 6 9 mph 999.9mb 50f
2:54pm 6 7 mph 1000.1mb 51f
2:48pm 5 8 mph 1000.1mb 51f
2:42pm 6 13 mph 1000.1mb 51f
2:36pm 6 10 mph 1000.1mb 51f
2:30pm 7 10 mph 1000.3mb 51f
2:24pm 5 9 mph 1000.4mb 50f
2:18pm 6 9 mph 1000.6mb 50f
2:12pm 5 11 mph 1000.8mb 50f
2:06pm 6 9 mph 1000.9mb 50f
2:00pm 6 9 mph 1001.1mb 50f
1:54pm 6 10 mph 1001.1mb 50f
1:48pm 7 11 mph 1001.3mb 50f
1:42pm 8 11 mph 1001.4mb 50f
1:36pm 8 15 mph 1001.6mb 50f
1:30pm 8 11 mph 1001.8mb 50f
1:24pm 11 16 mph 1002mb 50f
1:18pm 11 17 mph 1002.2mb 50f
1:12pm 9 16 mph 1002.4mb 50f
1:06pm 11 18 mph 1002.5mb 49f
1:00pm 13 17 mph 1002.6mb 49f
12:54pm 15 23 mph 1002.7mb 49f
12:48pm 14 21 mph 1002.8mb 49f
12:42pm 11 17 mph 1002.9mb 49f
12:36pm 14 23 mph 1003mb 49f
12:30pm 15 20 mph 1003.3mb 49f
12:24pm 10 17 mph 1003.4mb 49f
12:18pm 10 18 mph 1003.5mb 49f
12:12pm 14 22 mph 1003.6mb 49f
12:06pm 15 22 mph 1003.8mb 49f
12:00pm 14 22 mph 1003.8mb 49f
11:54am 17 21 mph 1003.9mb 49f
11:48am 16 22 mph 1004mb 49f
11:42am 15 21 mph 1004.1mb 50f
11:36am 11 23 mph 1004.2mb 50f
11:30am 14 24 mph 1004.3mb 50f
11:24am 13 24 mph 1004.4mb 50f
11:18am 11 23 mph 1004.5mb 51f
11:12am 15 23 mph 1004.6mb 51f
11:06am 11 21 mph 1004.6mb 51f
11:00am 13 21 mph 1004.7mb 51f
10:54am 11 17 mph 1004.8mb 51f
10:48am 14 24 mph 1004.9mb 51f
10:42am 16 23 mph 1005mb 51f
10:36am 14 22 mph 1005.1mb 51f
10:30am 15 24 mph 1005.2mb 51f
10:24am 13 21 mph 1005.2mb 51f
10:18am 15 22 mph 1005.4mb 51f
10:12am 11 20 mph 1005.6mb 51f
10:06am 13 24 mph 1005.9mb 50f
10:00am 14 23 mph - 51f
9:54am 14 20 mph - 51f
9:48am 8 11 mph - 50f
9:42am 11 16 mph - 51f
9:36am 10 15 mph - 51f
9:30am 10 18 mph - 50f
9:24am 11 17 mph - 50f
9:18am 14 21 mph - 50f
9:12am 15 22 mph - 50f
9:06am 15 22 mph - 50f
9:00am 14 22 mph - 50f
8:54am 14 22 mph - 50f
8:48am 16 23 mph - 49f
8:42am 16 23 mph - 49f
8:36am 16 25 mph - 49f
8:30am 15 21 mph - 49f
8:24am 14 22 mph - 49f
8:18am 14 20 mph - 49f
8:12am 14 20 mph - 49f
8:06am 10 18 mph - 48f
7:54am 11 18 mph - 48f
7:48am 11 18 mph - 48f
7:42am 13 20 mph - 48f
7:36am 11 23 mph - 48f
7:30am 14 18 mph - 48f
7:24am 14 21 mph - 48f
7:18am 16 22 mph - 48f
7:12am 14 24 mph - 48f
7:06am 13 20 mph - 48f
6:54am 13 22 mph - 48f
6:48am 11 22 mph - 48f
6:42am 14 22 mph - 48f
6:36am 14 20 mph - 48f
6:30am 16 22 mph - 48f
6:24am 11 18 mph - 48f
6:18am 11 20 mph - 48f
6:12am 11 21 mph - 48f
6:06am 11 22 mph - 48f
5:54am 15 23 mph - 48f
5:48am 16 25 mph - 48f
5:42am 16 23 mph - 48f
5:36am 15 22 mph - 48f
5:30am 17 22 mph - 48f
5:24am 16 24 mph - 48f
5:18am 15 23 mph - 48f
5:12am 15 22 mph - 49f
5:06am 16 25 mph - 49f
4:54am 14 23 mph - 49f
4:48am 14 22 mph - 49f
4:42am 15 22 mph - 49f
4:36am 14 18 mph - 49f
4:30am 11 21 mph - 49f
4:24am 14 22 mph - 49f
4:18am 11 18 mph - 49f
4:12am 13 18 mph - 50f
4:06am 14 21 mph - 50f
3:54am 9 18 mph - 50f
3:48am 9 17 mph - 50f
3:42am 13 21 mph - 50f
3:36am 13 17 mph - 50f
3:30am 10 16 mph - 50f
3:24am 9 18 mph - 50f
3:18am 11 17 mph - 50f
3:12am 11 16 mph - 49f
3:06am 11 18 mph - 50f
2:54am 13 16 mph - 50f
2:48am 13 20 mph - 50f
2:42am 10 15 mph - 50f
2:36am 10 20 mph - 49f
2:30am 13 18 mph - 50f
2:24am 14 18 mph - 50f
2:18am 14 17 mph - 50f
2:12am 13 17 mph - 50f
2:06am 11 20 mph - 50f
2:00am 13 17 mph - 49f
1:54am 10 15 mph - 50f
1:48am 11 15 mph - 50f
1:42am 10 15 mph - 50f
1:36am 10 16 mph - 50f
1:30am 10 17 mph - 50f
1:24am 10 17 mph - 50f
1:18am 13 16 mph - 49f
1:12am 14 20 mph - 49f
1:06am 10 17 mph - 49f
1:00am 13 18 mph - 49f
12:54am 11 16 mph - 48f
12:48am 13 18 mph - 48f
12:42am 11 17 mph - 48f
12:36am 11 16 mph - 48f
12:30am 13 18 mph - 48f
12:24am 13 16 mph - 48f
12:18am 11 17 mph - 48f
12:12am 11 16 mph - 48f
12:06am 13 20 mph - 48f
12:00am 13 17 mph - 48f
Sat 11/22 11:54pm 13 16 mph - 48f
11:48pm 13 16 mph - 48f
11:42pm 8 11 mph - 48f
11:36pm 8 11 mph - 47f
11:30pm 8 13 mph - 48f
11:24pm 7 11 mph - 47f
11:18pm 6 9 mph - 47f
11:12pm 8 10 mph - 47f
11:06pm 7 14 mph - 47f
11:00pm 8 11 mph - 47f
10:54pm 6 10 mph - 47f
10:48pm 7 10 mph - 47f
10:42pm 8 14 mph - 47f
10:36pm 8 11 mph - 46f
10:30pm 9 11 mph - 46f
10:24pm 8 11 mph - 46f
10:18pm 9 11 mph - 46f
10:12pm 7 10 mph - 46f
10:06pm 8 10 mph - 45f
10:00pm 6 8 mph - 45f
9:54pm 6 7 mph - 45f
9:48pm 5 7 mph - 45f
9:42pm 6 9 mph - 45f
9:36pm 8 10 mph - 45f
9:30pm 9 11 mph - 45f
9:24pm 9 11 mph - 44f
9:18pm 10 15 mph - 45f
9:12pm 9 13 mph - 45f
9:06pm 9 13 mph - 46f
9:00pm 10 14 mph - 46f
8:54pm 7 10 mph - 45f
8:48pm 7 14 mph - 46f
8:42pm 10 17 mph - 46f
8:36pm 10 16 mph - 45f
8:30pm 10 18 mph - 46f
8:24pm 10 16 mph - 45f
8:18pm 8 14 mph - 45f
8:12pm 8 15 mph - 45f
8:06pm 10 17 mph - 45f
7:54pm 11 17 mph - 46f
7:48pm 9 18 mph - 45f
7:42pm 13 18 mph - 45f
7:36pm 14 20 mph - 45f
7:30pm 11 20 mph - 45f
7:24pm 9 17 mph - 45f
7:18pm 14 20 mph - 45f
7:12pm 14 18 mph - 45f
7:06pm 11 17 mph - 45f
7:00pm 14 18 mph - 45f
6:54pm 13 21 mph - 45f
6:48pm 14 18 mph - 45f
6:42pm 11 21 mph - 45f
6:36pm 13 20 mph - 45f
6:30pm 15 24 mph - 45f
6:24pm 14 22 mph - 45f
6:18pm 16 22 mph - 45f
6:12pm 17 23 mph - 45f
6:06pm 16 22 mph - 45f
6:00pm 17 23 mph - 44f
5:54pm 17 23 mph - 44f
5:48pm 16 24 mph - 44f
5:42pm 17 26 mph - 44f
5:36pm 17 22 mph - 44f
5:30pm 16 22 mph - 44f
5:24pm 16 21 mph - 44f
5:18pm 14 22 mph - 44f
5:12pm 15 21 mph - 44f
5:06pm 14 20 mph - 44f
5:00pm 13 24 mph - 44f
4:54pm 15 21 mph - 43f
4:48pm 15 26 mph - 44f
4:42pm 16 23 mph - 43f
4:36pm 16 21 mph - 43f
4:30pm 15 26 mph - 43f
4:24pm 15 24 mph - 43f
4:18pm 17 23 mph - 43f
4:12pm 17 23 mph - 43f
4:06pm 16 23 mph - 43f
4:00pm 16 22 mph - 43f
3:54pm 16 22 mph - 43f
3:48pm 16 24 mph - 42f
3:42pm 17 22 mph - 43f
3:36pm 17 23 mph - 43f
3:30pm 15 22 mph - 42f
3:24pm 17 24 mph - 42f
3:18pm 16 23 mph - 42f
3:12pm 17 23 mph - 43f
3:06pm 16 22 mph - 43f
3:00pm 17 22 mph - 43f
2:54pm 18 22 mph - 43f
2:48pm 16 22 mph - 43f
2:42pm 16 21 mph - 44f
2:36pm 16 22 mph - 43f
2:30pm 17 22 mph - 43f
2:24pm 17 24 mph - 43f
2:18pm 20 26 mph - 43f
2:12pm 17 28 mph - 43f
2:06pm 18 24 mph - 43f
2:00pm 21 25 mph - 43f
1:54pm 20 25 mph - 43f
1:48pm 20 24 mph - 43f
1:42pm 17 22 mph - 42f
1:36pm 18 24 mph - 42f
1:30pm 18 26 mph - 43f
1:24pm 17 24 mph - 43f
1:18pm 17 22 mph - 43f
1:12pm 15 22 mph - 43f
1:06pm 18 23 mph - 43f
1:00pm 18 26 mph - 43f
12:54pm 17 26 mph - 42f
12:48pm 16 24 mph - 42f
12:42pm 14 21 mph - 42f
12:36pm 17 25 mph - 42f
12:30pm 16 25 mph - 42f
12:24pm 11 24 mph - 42f
12:18pm 18 24 mph - 42f
12:12pm 18 26 mph - 42f
12:06pm 21 26 mph - 42f
12:00pm 16 22 mph - 42f
11:54am 18 24 mph - 41f